createdAt,value
2018-05-16T00:00:44.225Z,7.90
2018-05-16T00:01:44.220Z,6.00
2018-05-16T00:02:44.216Z,6.50
2018-05-16T00:03:44.219Z,7.40
2018-05-16T00:04:44.211Z,7.00
2018-05-16T00:05:44.207Z,6.60
2018-05-16T00:06:44.204Z,7.20
2018-05-16T00:07:44.212Z,6.00
2018-05-16T00:08:44.192Z,6.70
2018-05-16T00:09:44.221Z,6.60
2018-05-16T00:10:44.187Z,5.70
2018-05-16T00:11:44.185Z,5.70
2018-05-16T00:12:44.179Z,6.70
2018-05-16T00:13:44.178Z,5.90
2018-05-16T00:14:44.171Z,5.80
2018-05-16T00:15:44.163Z,7.00
2018-05-16T00:16:44.159Z,5.90
2018-05-16T00:17:44.159Z,5.70
2018-05-16T00:18:44.155Z,6.00
2018-05-16T00:19:44.157Z,6.90
2018-05-16T00:20:44.140Z,5.70
2018-05-16T00:21:44.141Z,6.10
2018-05-16T00:22:44.145Z,5.90
2018-05-16T00:23:44.167Z,6.90
2018-05-16T00:24:44.140Z,6.20
2018-05-16T00:25:44.126Z,6.10
2018-05-16T00:26:44.120Z,6.60
2018-05-16T00:27:44.136Z,6.70
2018-05-16T00:28:44.118Z,6.90
2018-05-16T00:29:44.111Z,6.60
2018-05-16T00:30:44.102Z,6.20
2018-05-16T00:31:44.101Z,6.10
2018-05-16T00:32:44.116Z,7.00
2018-05-16T00:33:44.116Z,7.20
2018-05-16T00:34:44.120Z,6.10
2018-05-16T00:35:44.109Z,6.40
2018-05-16T00:36:44.086Z,7.00
2018-05-16T00:37:44.080Z,7.90
2018-05-16T00:38:44.072Z,6.00
2018-05-16T00:39:44.068Z,7.70
2018-05-16T00:40:44.064Z,6.20
2018-05-16T00:41:44.058Z,6.40
2018-05-16T00:42:44.053Z,6.40
2018-05-16T00:43:44.073Z,6.40
2018-05-16T00:44:44.044Z,6.40
2018-05-16T00:45:44.041Z,6.50
2018-05-16T00:46:44.037Z,6.70
2018-05-16T00:47:44.031Z,7.00
2018-05-16T00:48:44.027Z,6.80
2018-05-16T00:49:44.028Z,6.00
2018-05-16T00:50:44.016Z,6.60
2018-05-16T00:51:44.009Z,7.50
2018-05-16T00:52:44.009Z,7.00
2018-05-16T00:53:44.012Z,7.50
2018-05-16T00:54:43.999Z,5.80
2018-05-16T00:55:43.996Z,6.10
2018-05-16T00:56:43.989Z,6.90
2018-05-16T00:57:43.984Z,7.00
2018-05-16T00:58:43.981Z,6.30
2018-05-16T00:59:43.975Z,7.90
2018-05-16T01:00:43.977Z,6.00
2018-05-16T01:01:43.965Z,6.60
2018-05-16T01:02:43.960Z,6.60
2018-05-16T01:03:43.952Z,6.20
2018-05-16T01:04:43.948Z,6.50
2018-05-16T01:05:43.973Z,7.00
2018-05-16T01:06:43.996Z,6.40
2018-05-16T01:07:43.947Z,6.30
2018-05-16T01:08:43.937Z,7.10
2018-05-16T01:09:43.923Z,7.70
2018-05-16T01:10:43.952Z,6.90
2018-05-16T01:11:43.915Z,8.10
2018-05-16T01:12:43.929Z,8.00
2018-05-16T01:13:43.911Z,7.60
2018-05-16T01:14:43.902Z,6.30
2018-05-16T01:15:43.891Z,7.30
2018-05-16T01:16:43.895Z,7.60
2018-05-16T01:17:43.887Z,7.80
2018-05-16T01:18:43.885Z,8.70
2018-05-16T01:19:43.874Z,8.20
2018-05-16T01:20:43.873Z,8.60
2018-05-16T01:21:43.868Z,7.80
2018-05-16T01:22:43.862Z,7.30
2018-05-16T01:23:43.860Z,7.30
2018-05-16T01:24:43.851Z,6.60
2018-05-16T01:25:43.847Z,6.30
2018-05-16T01:26:43.853Z,5.80
2018-05-16T01:27:43.834Z,5.70
2018-05-16T01:28:43.833Z,6.60
2018-05-16T01:29:43.829Z,5.70
2018-05-16T01:30:43.842Z,6.00
2018-05-16T01:31:43.824Z,5.80
2018-05-16T01:32:43.809Z,6.80
2018-05-16T01:33:43.804Z,5.80
2018-05-16T01:34:43.803Z,5.80
2018-05-16T01:35:43.797Z,6.20
2018-05-16T01:36:43.793Z,5.70
2018-05-16T01:37:43.789Z,7.50
2018-05-16T01:38:43.785Z,5.90
2018-05-16T01:39:43.780Z,5.90
2018-05-16T01:40:43.771Z,6.00
2018-05-16T01:41:43.767Z,5.60
2018-05-16T01:42:43.764Z,6.10
2018-05-16T01:43:43.759Z,6.10
2018-05-16T01:44:43.756Z,6.10
2018-05-16T01:45:43.750Z,8.60
2018-05-16T01:46:43.737Z,6.10
2018-05-16T01:47:43.739Z,5.70
2018-05-16T01:48:43.730Z,5.70
2018-05-16T01:49:43.727Z,6.40
2018-05-16T01:50:43.725Z,7.40
2018-05-16T01:51:43.718Z,6.30
2018-05-16T01:52:43.715Z,6.30
2018-05-16T01:53:43.704Z,6.60
2018-05-16T01:54:43.698Z,5.70
2018-05-16T01:55:43.693Z,5.80
2018-05-16T01:56:43.692Z,6.40
2018-05-16T01:57:43.688Z,6.30
2018-05-16T01:58:43.693Z,6.70
2018-05-16T01:59:43.676Z,6.20
2018-05-16T02:00:43.671Z,5.70
2018-05-16T02:01:43.667Z,6.20
2018-05-16T02:02:43.659Z,6.30
2018-05-16T02:03:43.655Z,8.30
2018-05-16T02:04:43.653Z,6.20
2018-05-16T02:05:43.645Z,6.10
2018-05-16T02:06:43.643Z,6.00
2018-05-16T02:07:43.635Z,6.40
2018-05-16T02:08:43.629Z,6.00
2018-05-16T02:09:43.653Z,6.00
2018-05-16T02:10:43.617Z,6.00
2018-05-16T02:11:43.619Z,6.50
2018-05-16T02:12:43.611Z,6.10
2018-05-16T02:13:43.604Z,6.70
2018-05-16T02:14:43.603Z,6.10
2018-05-16T02:15:43.593Z,6.20
2018-05-16T02:16:43.586Z,6.40
2018-05-16T02:17:43.580Z,6.40
2018-05-16T02:18:43.580Z,7.60
2018-05-16T02:19:43.573Z,6.60
2018-05-16T02:20:43.569Z,7.60
2018-05-16T02:21:43.563Z,6.60
2018-05-16T02:22:43.554Z,6.20
2018-05-16T02:23:43.554Z,6.90
2018-05-16T02:24:43.545Z,6.10
2018-05-16T02:25:43.538Z,6.90
2018-05-16T02:26:43.535Z,7.60
2018-05-16T02:27:43.530Z,7.00
2018-05-16T02:28:43.524Z,6.80
2018-05-16T02:29:43.515Z,7.30
2018-05-16T02:30:43.509Z,6.90
2018-05-16T02:31:43.517Z,8.60
2018-05-16T02:32:43.503Z,6.70
2018-05-16T02:33:43.498Z,6.50
2018-05-16T02:34:43.492Z,7.50
2018-05-16T02:35:43.488Z,7.00
2018-05-16T02:36:43.483Z,7.10
2018-05-16T02:37:43.474Z,6.70
2018-05-16T02:38:43.469Z,8.20
2018-05-16T02:39:43.467Z,7.00
2018-05-16T02:40:43.461Z,6.70
2018-05-16T02:41:43.453Z,8.10
2018-05-16T02:42:43.449Z,7.70
2018-05-16T02:43:43.446Z,7.60
2018-05-16T02:44:43.437Z,7.40
2018-05-16T02:45:43.428Z,7.10
2018-05-16T02:46:43.424Z,7.00
2018-05-16T02:47:43.423Z,6.60
2018-05-16T02:48:43.416Z,7.10
2018-05-16T02:49:43.412Z,7.10
2018-05-16T02:50:43.406Z,7.30
2018-05-16T02:51:43.395Z,7.30
2018-05-16T02:52:43.395Z,7.40
2018-05-16T02:53:43.385Z,8.00
2018-05-16T02:54:43.381Z,7.00
2018-05-16T02:55:43.377Z,6.90
2018-05-16T02:56:43.373Z,6.70
2018-05-16T02:57:43.367Z,6.90
2018-05-16T02:58:43.358Z,6.60
2018-05-16T02:59:43.365Z,6.60
2018-05-16T03:00:43.347Z,7.30
2018-05-16T03:01:43.345Z,8.80
2018-05-16T03:02:43.336Z,6.40
2018-05-16T03:03:43.334Z,7.20
2018-05-16T03:04:43.329Z,7.10
2018-05-16T03:05:43.319Z,6.80
2018-05-16T03:06:43.324Z,7.90
2018-05-16T03:07:43.309Z,7.60
2018-05-16T03:08:43.305Z,7.00
2018-05-16T03:09:43.300Z,6.70
2018-05-16T03:10:43.294Z,7.60
2018-05-16T03:11:43.290Z,7.30
2018-05-16T03:12:43.279Z,7.30
2018-05-16T03:13:43.276Z,6.80
2018-05-16T03:14:43.271Z,7.00
2018-05-16T03:15:43.262Z,7.10
2018-05-16T03:16:43.260Z,7.90
2018-05-16T03:17:43.254Z,7.00
2018-05-16T03:18:43.249Z,8.30
2018-05-16T03:19:43.246Z,7.00
2018-05-16T03:20:43.233Z,7.00
2018-05-16T03:21:43.229Z,6.80
2018-05-16T03:22:43.222Z,7.20
2018-05-16T03:23:43.225Z,6.70
2018-05-16T03:24:43.216Z,8.50
2018-05-16T03:25:43.217Z,7.90
2018-05-16T03:26:43.202Z,7.40
2018-05-16T03:27:43.198Z,7.60
2018-05-16T03:28:43.192Z,7.60
2018-05-16T03:29:43.184Z,7.10
2018-05-16T03:30:43.184Z,7.10
2018-05-16T03:31:43.178Z,7.20
2018-05-16T03:32:43.173Z,7.70
2018-05-16T03:33:43.165Z,7.50
2018-05-16T03:34:43.161Z,7.50
2018-05-16T03:35:43.150Z,7.90
2018-05-16T03:36:43.142Z,8.20
2018-05-16T03:37:43.143Z,10.70
2018-05-16T03:38:43.138Z,7.90
2018-05-16T03:39:43.132Z,7.20
2018-05-16T03:40:43.127Z,7.50
2018-05-16T03:41:43.118Z,7.90
2018-05-16T03:42:43.113Z,7.40
2018-05-16T03:43:43.106Z,6.90
2018-05-16T03:44:43.103Z,8.10
2018-05-16T03:45:43.095Z,7.30
2018-05-16T03:46:43.091Z,7.50
2018-05-16T03:47:43.084Z,8.00
2018-05-16T03:48:43.077Z,7.70
2018-05-16T03:49:43.074Z,7.50
2018-05-16T03:50:43.067Z,7.20
2018-05-16T03:51:43.060Z,7.70
2018-05-16T03:52:43.060Z,8.00
2018-05-16T03:53:43.053Z,8.60
2018-05-16T03:54:43.048Z,7.70
2018-05-16T03:55:43.039Z,8.20
2018-05-16T03:56:43.031Z,7.40
2018-05-16T03:57:43.028Z,7.40
2018-05-16T03:58:43.019Z,8.10
2018-05-16T03:59:43.019Z,7.90
2018-05-16T04:00:43.011Z,7.70
2018-05-16T04:01:43.005Z,7.70
2018-05-16T04:02:43.001Z,7.60
2018-05-16T04:03:42.994Z,8.30
2018-05-16T04:04:42.986Z,8.30
2018-05-16T04:05:42.983Z,8.70
2018-05-16T04:06:42.977Z,8.20
2018-05-16T04:07:42.970Z,7.50
2018-05-16T04:08:42.973Z,7.40
2018-05-16T04:09:42.960Z,8.60
2018-05-16T04:10:42.955Z,7.50
2018-05-16T04:11:42.946Z,7.90
2018-05-16T04:12:42.942Z,7.90
2018-05-16T04:13:42.934Z,7.60
2018-05-16T04:14:42.935Z,8.00
2018-05-16T04:15:42.928Z,8.10
2018-05-16T04:16:42.922Z,9.30
2018-05-16T04:17:42.911Z,8.00
2018-05-16T04:18:42.919Z,7.60
2018-05-16T04:19:42.916Z,7.90
2018-05-16T04:20:42.897Z,8.40
2018-05-16T04:21:42.894Z,8.50
2018-05-16T04:22:42.887Z,8.60
2018-05-16T04:23:42.883Z,8.50
2018-05-16T04:24:42.879Z,9.80
2018-05-16T04:25:42.866Z,8.40
2018-05-16T04:26:42.861Z,9.10
2018-05-16T04:27:42.861Z,7.60
2018-05-16T04:28:42.922Z,8.50
2018-05-16T04:29:42.848Z,8.50
2018-05-16T04:30:42.845Z,7.70
2018-05-16T04:31:42.836Z,7.50
2018-05-16T04:32:42.904Z,8.10
2018-05-16T04:33:42.828Z,8.40
2018-05-16T04:34:42.820Z,9.60
2018-05-16T04:35:42.815Z,7.70
2018-05-16T04:36:42.812Z,8.50
2018-05-16T04:37:42.803Z,8.20
2018-05-16T04:38:42.796Z,9.40
2018-05-16T04:39:42.788Z,8.40
2018-05-16T04:40:42.783Z,8.20
2018-05-16T04:41:42.844Z,9.40
2018-05-16T04:42:42.826Z,7.90
2018-05-16T04:43:42.770Z,7.80
2018-05-16T04:44:42.765Z,7.70
2018-05-16T04:45:42.757Z,9.40
2018-05-16T04:46:42.748Z,8.60
2018-05-16T04:47:42.751Z,8.20
2018-05-16T04:48:42.747Z,9.30
2018-05-16T04:49:42.741Z,7.90
2018-05-16T04:50:42.730Z,7.90
2018-05-16T04:51:42.726Z,10.80
2018-05-16T04:52:42.721Z,9.90
2018-05-16T04:53:42.712Z,8.10
2018-05-16T04:54:42.710Z,8.10
2018-05-16T04:55:42.701Z,9.80
2018-05-16T04:56:42.700Z,8.70
2018-05-16T04:57:42.697Z,9.30
2018-05-16T04:58:42.686Z,8.00
2018-05-16T04:59:42.684Z,9.20
2018-05-16T05:00:42.675Z,8.30
2018-05-16T05:01:42.670Z,7.80
2018-05-16T05:02:42.666Z,7.00
2018-05-16T05:03:42.661Z,7.90
2018-05-16T05:04:42.658Z,7.00
2018-05-16T05:05:42.650Z,7.10
2018-05-16T05:06:42.649Z,6.80
2018-05-16T05:07:42.642Z,7.20
2018-05-16T05:08:42.637Z,5.90
2018-05-16T05:09:42.631Z,6.70
2018-05-16T05:10:42.628Z,7.70
2018-05-16T05:11:42.629Z,6.30
2018-05-16T05:12:42.624Z,6.70
2018-05-16T05:13:42.617Z,6.30
2018-05-16T05:14:42.613Z,6.60
2018-05-16T05:15:42.611Z,6.50
2018-05-16T05:16:42.604Z,5.80
2018-05-16T05:17:42.602Z,6.60
2018-05-16T05:18:42.687Z,6.30
2018-05-16T05:19:42.597Z,6.20
2018-05-16T05:20:42.593Z,7.20
2018-05-16T05:21:42.591Z,6.40
2018-05-16T05:22:42.583Z,5.90
2018-05-16T05:23:42.578Z,6.40
2018-05-16T05:24:42.579Z,6.10
2018-05-16T05:25:42.577Z,7.60
2018-05-16T05:26:42.574Z,5.70
2018-05-16T05:27:42.571Z,6.30
2018-05-16T05:28:42.569Z,6.60
2018-05-16T05:29:42.563Z,5.50
2018-05-16T05:30:42.559Z,6.00
2018-05-16T05:31:42.557Z,6.20
2018-05-16T05:32:42.559Z,5.90
2018-05-16T05:33:42.555Z,5.80
2018-05-16T05:34:42.549Z,6.10
2018-05-16T05:35:42.551Z,5.90
2018-05-16T05:36:42.546Z,6.00
2018-05-16T05:37:42.546Z,6.10
2018-05-16T05:38:42.545Z,6.80
2018-05-16T05:39:42.544Z,5.90
2018-05-16T05:40:42.541Z,5.80
2018-05-16T05:41:42.539Z,5.80
2018-05-16T05:42:42.534Z,5.60
2018-05-16T05:43:42.531Z,7.20
2018-05-16T05:44:42.534Z,5.90
2018-05-16T05:45:42.535Z,6.30
2018-05-16T05:46:42.531Z,6.70
2018-05-16T05:47:42.537Z,6.30
2018-05-16T05:48:42.526Z,7.80
2018-05-16T05:49:42.520Z,5.50
2018-05-16T05:50:42.522Z,6.70
2018-05-16T05:51:42.521Z,6.90
2018-05-16T05:52:42.522Z,5.90
2018-05-16T05:53:42.519Z,5.50
2018-05-16T05:54:42.520Z,5.60
2018-05-16T05:55:42.521Z,5.30
2018-05-16T05:56:42.516Z,6.60
2018-05-16T05:57:42.514Z,6.00
2018-05-16T05:58:42.524Z,5.70
2018-05-16T05:59:42.517Z,5.30
2018-05-16T06:00:42.530Z,7.30
2018-05-16T06:01:42.514Z,6.80
2018-05-16T06:02:42.516Z,5.60
2018-05-16T06:03:42.514Z,6.20
2018-05-16T06:04:42.517Z,6.40
2018-05-16T06:05:42.515Z,7.50
2018-05-16T06:06:42.519Z,5.80
2018-05-16T06:07:42.515Z,7.10
2018-05-16T06:08:42.519Z,6.10
2018-05-16T06:09:42.517Z,6.20
2018-05-16T06:10:42.515Z,6.00
2018-05-16T06:11:42.517Z,6.20
2018-05-16T06:12:42.554Z,7.30
2018-05-16T06:13:42.517Z,6.30
2018-05-16T06:14:42.522Z,6.30
2018-05-16T06:15:42.523Z,7.90
2018-05-16T06:16:42.527Z,8.60
2018-05-16T06:17:42.518Z,11.20
2018-05-16T06:18:42.524Z,10.00
2018-05-16T06:19:42.594Z,9.60
2018-05-16T06:20:42.522Z,7.20
2018-05-16T06:21:42.527Z,6.40
2018-05-16T06:22:42.544Z,7.10
2018-05-16T06:23:42.528Z,7.20
2018-05-16T06:24:42.551Z,7.60
2018-05-16T06:25:42.523Z,8.40
2018-05-16T06:26:42.527Z,9.70
2018-05-16T06:27:42.524Z,8.20
2018-05-16T06:28:42.535Z,7.60
2018-05-16T06:29:42.533Z,8.70
2018-05-16T06:30:42.535Z,7.60
2018-05-16T06:31:42.535Z,6.70
2018-05-16T06:32:42.591Z,7.50
2018-05-16T06:33:42.532Z,7.80
2018-05-16T06:34:42.536Z,7.70
2018-05-16T06:35:42.539Z,10.10
2018-05-16T06:36:42.546Z,8.60
2018-05-16T06:37:42.540Z,8.50
2018-05-16T06:38:42.539Z,8.80
2018-05-16T06:39:42.537Z,8.00
2018-05-16T06:40:42.540Z,10.40
2018-05-16T06:41:42.545Z,8.30
2018-05-16T06:42:42.546Z,8.90
2018-05-16T06:43:42.549Z,9.90
2018-05-16T06:44:42.550Z,8.90
2018-05-16T06:45:42.569Z,10.40
2018-05-16T06:46:42.551Z,8.60
2018-05-16T06:47:42.555Z,9.40
2018-05-16T06:48:42.553Z,14.60
2018-05-16T06:49:42.559Z,9.80
2018-05-16T06:50:42.558Z,14.40
2018-05-16T06:51:42.562Z,8.50
2018-05-16T06:52:42.566Z,8.40
2018-05-16T06:53:42.566Z,8.90
2018-05-16T06:54:42.565Z,8.20
2018-05-16T06:55:42.566Z,10.00
2018-05-16T06:56:42.569Z,7.90
2018-05-16T06:57:42.565Z,9.00
2018-05-16T06:58:42.573Z,8.40
2018-05-16T06:59:42.577Z,10.00
2018-05-16T07:00:42.573Z,14.80
2018-05-16T07:01:42.573Z,13.60
2018-05-16T07:02:42.579Z,11.90
2018-05-16T07:03:42.577Z,10.40
2018-05-16T07:04:42.581Z,8.80
2018-05-16T07:05:42.585Z,9.40
2018-05-16T07:06:42.589Z,9.80
2018-05-16T07:07:42.580Z,8.80
2018-05-16T07:08:42.591Z,8.80
2018-05-16T07:09:42.586Z,9.20
2018-05-16T07:10:42.588Z,8.80
2018-05-16T07:11:42.586Z,10.20
2018-05-16T07:12:42.593Z,10.00
2018-05-16T07:13:42.588Z,10.60
2018-05-16T07:14:42.586Z,9.60
2018-05-16T07:15:42.587Z,10.40
2018-05-16T07:16:42.585Z,10.20
2018-05-16T07:17:42.586Z,16.30
2018-05-16T07:18:42.586Z,13.00
2018-05-16T07:19:42.590Z,12.50
2018-05-16T07:20:42.588Z,11.40
2018-05-16T07:21:42.583Z,11.50
2018-05-16T07:22:42.619Z,11.30
2018-05-16T07:23:42.586Z,11.00
2018-05-16T07:24:42.579Z,11.40
2018-05-16T07:25:42.584Z,11.40
2018-05-16T07:26:42.580Z,11.40
2018-05-16T07:27:42.580Z,11.40
2018-05-16T07:28:42.574Z,11.50
2018-05-16T07:29:42.577Z,13.30
2018-05-16T07:30:42.572Z,14.40
2018-05-16T07:31:42.592Z,12.30
2018-05-16T07:32:42.575Z,12.40
2018-05-16T07:33:42.632Z,13.10
2018-05-16T07:34:42.569Z,12.80
2018-05-16T07:35:42.564Z,12.20
2018-05-16T07:36:42.594Z,12.60
2018-05-16T07:37:42.559Z,13.70
2018-05-16T07:38:42.571Z,13.70
2018-05-16T07:39:42.561Z,16.10
2018-05-16T07:40:42.557Z,20.30
2018-05-16T07:41:42.556Z,15.40
2018-05-16T07:42:42.553Z,17.20
2018-05-16T07:43:42.550Z,15.90
2018-05-16T07:44:42.550Z,14.20
2018-05-16T07:45:42.546Z,15.20
2018-05-16T07:46:42.551Z,13.20
2018-05-16T07:47:42.556Z,15.30
2018-05-16T07:48:42.548Z,14.40
2018-05-16T07:49:42.542Z,15.90
2018-05-16T07:50:42.541Z,12.90
2018-05-16T07:51:42.537Z,13.50
2018-05-16T07:52:42.537Z,13.30
2018-05-16T07:53:42.553Z,13.70
2018-05-16T07:54:42.531Z,14.10
2018-05-16T07:55:42.525Z,13.00
2018-05-16T07:56:42.525Z,13.10
2018-05-16T07:57:42.519Z,12.80
2018-05-16T07:58:42.518Z,12.50
2018-05-16T07:59:42.513Z,13.50
2018-05-16T08:00:42.519Z,12.70
2018-05-16T08:01:42.510Z,15.80
2018-05-16T08:02:43.408Z,14.80
2018-05-16T08:03:42.505Z,15.10
2018-05-16T08:04:42.505Z,13.70
2018-05-16T08:05:42.513Z,13.10
2018-05-16T08:06:42.497Z,13.60
2018-05-16T08:07:42.497Z,12.90
2018-05-16T08:08:42.525Z,12.80
2018-05-16T08:09:42.488Z,15.40
2018-05-16T08:10:42.492Z,12.70
2018-05-16T08:11:42.487Z,13.00
2018-05-16T08:12:42.489Z,12.60
2018-05-16T08:13:42.477Z,13.10
2018-05-16T08:14:42.480Z,12.80
2018-05-16T08:15:42.478Z,13.10
2018-05-16T08:16:42.476Z,11.90
2018-05-16T08:17:42.469Z,13.00
2018-05-16T08:18:42.467Z,16.30
2018-05-16T08:19:42.467Z,15.00
2018-05-16T08:20:42.476Z,13.70
2018-05-16T08:21:42.502Z,12.90
2018-05-16T08:22:42.468Z,13.60
2018-05-16T08:23:42.462Z,13.70
2018-05-16T08:24:42.460Z,13.80
2018-05-16T08:25:42.453Z,13.40
2018-05-16T08:26:42.451Z,13.80
2018-05-16T08:27:42.450Z,15.10
2018-05-16T08:28:42.447Z,18.40
2018-05-16T08:29:42.448Z,16.30
2018-05-16T08:30:42.447Z,16.20
2018-05-16T08:31:42.442Z,18.50
2018-05-16T08:32:42.446Z,18.50
2018-05-16T08:33:42.444Z,14.80
2018-05-16T08:34:42.438Z,15.10
2018-05-16T08:35:42.436Z,17.50
2018-05-16T08:36:42.471Z,22.80
2018-05-16T08:37:42.436Z,21.40
2018-05-16T08:38:42.436Z,19.90
2018-05-16T08:39:42.434Z,19.90
2018-05-16T08:40:42.432Z,19.10
2018-05-16T08:41:42.433Z,18.30
2018-05-16T08:42:42.425Z,23.20
2018-05-16T08:43:42.431Z,23.40
2018-05-16T08:44:42.426Z,20.90
2018-05-16T08:45:42.427Z,18.20
2018-05-16T08:46:42.426Z,19.80
2018-05-16T08:47:42.424Z,17.50
2018-05-16T08:48:42.425Z,17.70
2018-05-16T08:49:42.422Z,19.00
2018-05-16T08:50:42.425Z,18.00
2018-05-16T08:51:42.433Z,16.10
2018-05-16T08:52:42.424Z,17.90
2018-05-16T08:53:42.423Z,22.70
2018-05-16T08:54:42.420Z,16.20
2018-05-16T08:55:42.421Z,16.70
2018-05-16T08:56:42.419Z,15.20
2018-05-16T08:57:42.420Z,15.10
2018-05-16T08:58:42.417Z,14.50
2018-05-16T08:59:42.422Z,16.10
2018-05-16T09:00:42.425Z,17.40
2018-05-16T09:01:42.419Z,14.60
2018-05-16T09:02:42.417Z,16.60
2018-05-16T09:03:42.417Z,14.30
2018-05-16T09:04:42.421Z,15.40
2018-05-16T09:05:42.429Z,15.50
2018-05-16T09:06:42.425Z,19.90
2018-05-16T09:07:42.427Z,17.30
2018-05-16T09:08:42.423Z,14.50
2018-05-16T09:09:42.422Z,18.60
2018-05-16T09:10:42.424Z,15.70
2018-05-16T09:11:42.431Z,19.50
2018-05-16T09:12:42.431Z,16.70
2018-05-16T09:13:42.433Z,13.70
2018-05-16T09:14:42.433Z,14.10
2018-05-16T09:15:42.440Z,12.30
2018-05-16T09:16:42.436Z,14.40
2018-05-16T09:17:42.439Z,16.80
2018-05-16T09:18:42.441Z,17.60
2018-05-16T09:19:42.443Z,15.80
2018-05-16T09:20:42.452Z,11.90
2018-05-16T09:21:42.447Z,13.90
2018-05-16T09:22:42.447Z,12.00
2018-05-16T09:23:42.453Z,11.10
2018-05-16T09:24:42.454Z,12.90
2018-05-16T09:25:42.456Z,10.30
2018-05-16T09:26:42.465Z,12.80
2018-05-16T09:27:42.465Z,16.30
2018-05-16T09:28:42.467Z,14.20
2018-05-16T09:29:42.470Z,14.10
2018-05-16T09:30:42.470Z,14.40
2018-05-16T09:31:42.471Z,14.00
2018-05-16T09:32:42.472Z,14.00
2018-05-16T09:33:42.497Z,10.40
2018-05-16T09:34:42.487Z,11.60
2018-05-16T09:35:42.483Z,9.70
2018-05-16T09:36:42.494Z,13.90
2018-05-16T09:37:42.485Z,14.00
2018-05-16T09:38:42.487Z,9.50
2018-05-16T09:39:42.493Z,18.10
2018-05-16T09:40:42.497Z,12.50
2018-05-16T09:41:42.499Z,11.60
2018-05-16T09:42:42.498Z,13.20
2018-05-16T09:43:42.501Z,14.20
2018-05-16T09:44:42.500Z,15.20
2018-05-16T09:45:42.597Z,13.20
2018-05-16T09:46:42.509Z,11.90
2018-05-16T09:47:42.514Z,18.60
2018-05-16T09:48:42.514Z,15.40
2018-05-16T09:49:42.514Z,16.90
2018-05-16T09:50:42.515Z,10.60
2018-05-16T09:51:42.511Z,12.90
2018-05-16T09:52:42.518Z,10.10
2018-05-16T09:53:42.516Z,10.00
2018-05-16T09:54:42.521Z,11.20
2018-05-16T09:55:42.522Z,12.80
2018-05-16T09:56:42.515Z,10.50
2018-05-16T09:57:42.520Z,10.60
2018-05-16T09:58:42.521Z,10.50
2018-05-16T09:59:42.524Z,10.20
2018-05-16T10:00:42.525Z,11.30
2018-05-16T10:01:42.529Z,10.80
2018-05-16T10:02:42.618Z,13.00
2018-05-16T10:03:42.525Z,12.90
2018-05-16T10:04:42.531Z,13.40
2018-05-16T10:05:42.529Z,10.40
2018-05-16T10:06:42.530Z,12.10
2018-05-16T10:07:42.542Z,13.70
2018-05-16T10:08:42.533Z,12.00
2018-05-16T10:09:42.605Z,11.10
2018-05-16T10:10:42.536Z,13.60
2018-05-16T10:11:42.537Z,13.40
2018-05-16T10:12:42.538Z,11.00
2018-05-16T10:13:42.534Z,18.30
2018-05-16T10:14:42.534Z,11.50
2018-05-16T10:15:42.537Z,13.60
2018-05-16T10:16:42.542Z,12.50
2018-05-16T10:17:42.541Z,11.60
2018-05-16T10:18:42.543Z,10.20
2018-05-16T10:19:42.539Z,10.20
2018-05-16T10:20:42.541Z,13.50
2018-05-16T10:21:42.541Z,10.40
2018-05-16T10:22:42.540Z,15.40
2018-05-16T10:23:42.556Z,10.70
2018-05-16T10:24:42.543Z,10.80
2018-05-16T10:25:42.546Z,12.80
2018-05-16T10:26:42.542Z,10.60
2018-05-16T10:27:42.543Z,11.50
2018-05-16T10:28:42.549Z,10.70
2018-05-16T10:29:42.549Z,10.80
2018-05-16T10:30:42.567Z,12.40
2018-05-16T10:31:42.551Z,13.40
2018-05-16T10:32:42.552Z,13.70
2018-05-16T10:33:42.551Z,12.00
2018-05-16T10:34:42.547Z,12.50
2018-05-16T10:35:42.549Z,11.30
2018-05-16T10:36:42.554Z,10.80
2018-05-16T10:37:42.561Z,12.20
2018-05-16T10:38:42.554Z,9.50
2018-05-16T10:39:42.555Z,8.60
2018-05-16T10:40:42.557Z,8.70
2018-05-16T10:41:42.553Z,9.20
2018-05-16T10:42:42.553Z,10.50
2018-05-16T10:43:42.555Z,9.60
2018-05-16T10:44:42.558Z,9.20
2018-05-16T10:45:42.558Z,8.50
2018-05-16T10:46:42.556Z,10.20
2018-05-16T10:47:42.560Z,9.50
2018-05-16T10:48:42.555Z,9.00
2018-05-16T10:49:42.558Z,10.00
2018-05-16T10:50:42.643Z,10.00
2018-05-16T10:51:42.559Z,9.60
2018-05-16T10:52:42.558Z,9.40
2018-05-16T10:53:42.563Z,13.50
2018-05-16T10:54:42.559Z,10.60
2018-05-16T10:55:42.565Z,12.90
2018-05-16T10:56:42.556Z,13.10
2018-05-16T10:57:42.559Z,10.90
2018-05-16T10:58:42.565Z,11.00
2018-05-16T10:59:42.562Z,9.90
2018-05-16T11:00:42.566Z,10.90
2018-05-16T11:01:42.561Z,10.70
2018-05-16T11:02:42.561Z,14.80
2018-05-16T11:03:42.558Z,15.70
2018-05-16T11:04:42.561Z,11.30
2018-05-16T11:05:42.564Z,12.90
2018-05-16T11:06:42.565Z,11.30
2018-05-16T11:07:42.591Z,12.00
2018-05-16T11:08:42.566Z,10.50
2018-05-16T11:09:42.568Z,12.50
2018-05-16T11:10:42.567Z,10.20
2018-05-16T11:11:42.566Z,9.50
2018-05-16T11:12:42.570Z,16.00
2018-05-16T11:13:42.571Z,19.50
2018-05-16T11:14:42.576Z,8.50
2018-05-16T11:15:42.598Z,9.70
2018-05-16T11:16:42.598Z,11.10
2018-05-16T11:17:42.572Z,15.90
2018-05-16T11:18:42.575Z,10.00
2018-05-16T11:19:42.573Z,9.00
2018-05-16T11:20:42.579Z,8.90
2018-05-16T11:21:42.585Z,10.00
2018-05-16T11:22:42.584Z,11.00
2018-05-16T11:23:42.579Z,11.00
2018-05-16T11:24:42.583Z,10.20
2018-05-16T11:25:42.582Z,10.10
2018-05-16T11:26:42.584Z,11.40
2018-05-16T11:27:42.586Z,13.20
2018-05-16T11:28:42.595Z,7.90
2018-05-16T11:29:42.590Z,8.00
2018-05-16T11:30:42.613Z,10.40
2018-05-16T11:31:42.606Z,13.80
2018-05-16T11:32:42.587Z,8.60
2018-05-16T11:33:42.588Z,12.30
2018-05-16T11:34:42.609Z,10.50
2018-05-16T11:35:42.593Z,10.60
2018-05-16T11:36:42.697Z,12.60
2018-05-16T11:37:42.595Z,9.20
2018-05-16T11:38:42.595Z,9.00
2018-05-16T11:39:42.593Z,6.30
2018-05-16T11:40:42.598Z,10.50
2018-05-16T11:41:42.601Z,8.40
2018-05-16T11:42:42.617Z,10.80
2018-05-16T11:43:42.605Z,11.10
2018-05-16T11:44:42.610Z,10.80
2018-05-16T11:45:42.602Z,9.20
2018-05-16T11:46:42.627Z,11.90
2018-05-16T11:47:42.602Z,9.30
2018-05-16T11:48:42.662Z,8.90
2018-05-16T11:49:42.610Z,10.10
2018-05-16T11:50:42.608Z,10.00
2018-05-16T11:51:42.609Z,8.70
2018-05-16T11:52:42.610Z,7.90
2018-05-16T11:53:42.610Z,7.90
2018-05-16T11:54:42.617Z,8.60
2018-05-16T11:55:42.617Z,7.80
2018-05-16T11:56:42.614Z,9.90
2018-05-16T11:57:42.621Z,8.40
2018-05-16T11:58:42.616Z,6.90
2018-05-16T11:59:42.618Z,10.70
2018-05-16T12:00:42.624Z,7.60
2018-05-16T12:01:42.619Z,6.20
2018-05-16T12:02:42.695Z,6.00
2018-05-16T12:03:42.629Z,6.10
2018-05-16T12:04:42.634Z,9.80
2018-05-16T12:05:42.632Z,5.60
2018-05-16T12:06:42.630Z,8.40
2018-05-16T12:07:42.635Z,11.00
2018-05-16T12:08:42.633Z,11.30
2018-05-16T12:09:42.638Z,7.30
2018-05-16T12:10:42.641Z,6.80
2018-05-16T12:11:42.652Z,7.50
2018-05-16T12:12:42.645Z,7.00
2018-05-16T12:13:42.642Z,5.70
2018-05-16T12:14:42.755Z,5.60
2018-05-16T12:15:42.652Z,5.90
2018-05-16T12:16:42.649Z,5.80
2018-05-16T12:17:42.656Z,7.40
2018-05-16T12:18:42.660Z,6.60
2018-05-16T12:19:42.664Z,6.60
2018-05-16T12:20:42.660Z,6.30
2018-05-16T12:21:42.748Z,6.20
2018-05-16T12:22:42.664Z,6.50
2018-05-16T12:23:42.668Z,5.70
2018-05-16T12:24:42.677Z,7.60
2018-05-16T12:25:42.674Z,8.40
2018-05-16T12:26:42.680Z,8.60
2018-05-16T12:27:42.685Z,6.40
2018-05-16T12:28:42.682Z,8.30
2018-05-16T12:29:42.689Z,8.70
2018-05-16T12:30:42.689Z,7.50
2018-05-16T12:31:42.695Z,9.10
2018-05-16T12:32:42.698Z,10.30
2018-05-16T12:33:42.704Z,9.30
2018-05-16T12:34:42.707Z,8.60
2018-05-16T12:35:42.706Z,7.80
2018-05-16T12:36:42.791Z,8.50
2018-05-16T12:37:42.720Z,6.80
2018-05-16T12:38:42.725Z,7.60
2018-05-16T12:39:42.722Z,7.70
2018-05-16T12:40:42.726Z,10.30
2018-05-16T12:41:42.728Z,8.90
2018-05-16T12:42:42.732Z,12.70
2018-05-16T12:43:42.733Z,13.40
2018-05-16T12:44:42.735Z,13.20
2018-05-16T12:45:42.741Z,14.50
2018-05-16T12:46:42.759Z,11.10
2018-05-16T12:47:42.748Z,10.50
2018-05-16T12:48:42.751Z,10.70
2018-05-16T12:49:42.749Z,9.10
2018-05-16T12:50:42.754Z,10.90
2018-05-16T12:51:42.760Z,10.30
2018-05-16T12:52:42.756Z,12.50
2018-05-16T12:53:42.763Z,10.40
2018-05-16T12:54:42.768Z,10.50
2018-05-16T12:55:42.856Z,9.10
2018-05-16T12:56:42.808Z,8.40
2018-05-16T12:57:42.778Z,7.90
2018-05-16T12:58:43.528Z,8.80
2018-05-16T12:59:42.818Z,9.30
2018-05-16T13:00:42.804Z,7.90
2018-05-16T13:01:42.790Z,9.00
2018-05-16T13:02:42.791Z,9.60
2018-05-16T13:03:42.795Z,10.90
2018-05-16T13:04:42.799Z,8.90
2018-05-16T13:05:42.804Z,8.50
2018-05-16T13:06:42.800Z,10.80
2018-05-16T13:07:42.806Z,9.90
2018-05-16T13:08:42.804Z,9.90
2018-05-16T13:09:42.808Z,8.70